sensor_id;sensor_type;location;lat;lon;timestamp;temperature;humidity
31735;DHT22;18313;48.518;9.124;2022-11-11T00:02:40;5.20;99.90
31735;DHT22;18313;48.518;9.124;2022-11-11T00:05:26;5.20;99.90
31735;DHT22;18313;48.518;9.124;2022-11-11T00:08:12;5.10;99.90
31735;DHT22;18313;48.518;9.124;2022-11-11T00:11:05;5.00;99.90
31735;DHT22;18313;48.518;9.124;2022-11-11T00:13:53;4.90;99.90
31735;DHT22;18313;48.518;9.124;2022-11-11T00:16:38;4.90;99.90
31735;DHT22;18313;48.518;9.124;2022-11-11T00:19:42;4.90;99.90
31735;DHT22;18313;48.518;9.124;2022-11-11T00:22:46;4.90;99.90
31735;DHT22;18313;48.518;9.124;2022-11-11T00:25:51;4.80;99.90
31735;DHT22;18313;48.518;9.124;2022-11-11T00:28:57;4.70;99.90
31735;DHT22;18313;48.518;9.124;2022-11-11T00:31:42;4.50;99.90
31735;DHT22;18313;48.518;9.124;2022-11-11T00:34:47;4.50;99.90
31735;DHT22;18313;48.518;9.124;2022-11-11T00:37:50;4.50;99.90
31735;DHT22;18313;48.518;9.124;2022-11-11T00:40:36;4.50;99.90
31735;DHT22;18313;48.518;9.124;2022-11-11T00:43:22;4.50;99.90
31735;DHT22;18313;48.518;9.124;2022-11-11T00:46:08;4.50;99.90
31735;DHT22;18313;48.518;9.124;2022-11-11T00:49:12;4.60;99.90
31735;DHT22;18313;48.518;9.124;2022-11-11T00:52:16;4.60;99.90
31735;DHT22;18313;48.518;9.124;2022-11-11T00:55:02;4.60;99.90
31735;DHT22;18313;48.518;9.124;2022-11-11T00:57:48;4.50;99.90
31735;DHT22;18313;48.518;9.124;2022-11-11T01:00:33;4.50;99.90
31735;DHT22;18313;48.518;9.124;2022-11-11T01:03:19;4.40;99.90
31735;DHT22;18313;48.518;9.124;2022-11-11T01:06:05;4.30;99.90
31735;DHT22;18313;48.518;9.124;2022-11-11T01:08:51;4.30;99.90
31735;DHT22;18313;48.518;9.124;2022-11-11T01:11:37;4.30;99.90
31735;DHT22;18313;48.518;9.124;2022-11-11T01:14:22;4.30;99.90
31735;DHT22;18313;48.518;9.124;2022-11-11T01:17:08;4.20;99.90
31735;DHT22;18313;48.518;9.124;2022-11-11T01:19:53;4.20;99.90
31735;DHT22;18313;48.518;9.124;2022-11-11T01:22:39;4.10;99.90
31735;DHT22;18313;48.518;9.124;2022-11-11T01:25:24;4.10;99.90
31735;DHT22;18313;48.518;9.124;2022-11-11T01:28:10;4.20;99.90
31735;DHT22;18313;48.518;9.124;2022-11-11T01:31:07;4.30;99.90
31735;DHT22;18313;48.518;9.124;2022-11-11T01:33:53;4.30;99.90
31735;DHT22;18313;48.518;9.124;2022-11-11T01:36:39;4.30;99.90
31735;DHT22;18313;48.518;9.124;2022-11-11T01:39:24;4.30;99.90
31735;DHT22;18313;48.518;9.124;2022-11-11T01:42:10;4.30;99.90
31735;DHT22;18313;48.518;9.124;2022-11-11T01:44:56;4.40;99.90
31735;DHT22;18313;48.518;9.124;2022-11-11T01:47:41;4.40;99.90
31735;DHT22;18313;48.518;9.124;2022-11-11T01:51:11;4.40;99.90
31735;DHT22;18313;48.518;9.124;2022-11-11T01:54:03;4.30;99.90
31735;DHT22;18313;48.518;9.124;2022-11-11T01:56:57;4.40;99.90
31735;DHT22;18313;48.518;9.124;2022-11-11T01:59:45;4.40;99.90
31735;DHT22;18313;48.518;9.124;2022-11-11T02:05:35;4.30;99.90
31735;DHT22;18313;48.518;9.124;2022-11-11T02:08:31;4.30;99.90
31735;DHT22;18313;48.518;9.124;2022-11-11T02:11:20;4.30;99.90
31735;DHT22;18313;48.518;9.124;2022-11-11T02:14:26;4.30;99.90
31735;DHT22;18313;48.518;9.124;2022-11-11T02:17:21;4.20;99.90
31735;DHT22;18313;48.518;9.124;2022-11-11T02:20:08;4.10;99.90
31735;DHT22;18313;48.518;9.124;2022-11-11T02:22:59;4.10;99.90
31735;DHT22;18313;48.518;9.124;2022-11-11T02:25:48;4.10;99.90
31735;DHT22;18313;48.518;9.124;2022-11-11T02:28:35;4.10;99.90
31735;DHT22;18313;48.518;9.124;2022-11-11T02:31:27;4.20;99.90
31735;DHT22;18313;48.518;9.124;2022-11-11T02:34:13;4.20;99.90
31735;DHT22;18313;48.518;9.124;2022-11-11T02:37:00;4.20;99.90
31735;DHT22;18313;48.518;9.124;2022-11-11T02:39:49;4.20;99.90
31735;DHT22;18313;48.518;9.124;2022-11-11T02:42:48;4.10;99.90
31735;DHT22;18313;48.518;9.124;2022-11-11T02:45:33;4.10;99.90
31735;DHT22;18313;48.518;9.124;2022-11-11T02:48:19;4.20;99.90
31735;DHT22;18313;48.518;9.124;2022-11-11T02:51:05;4.20;99.90
31735;DHT22;18313;48.518;9.124;2022-11-11T02:53:53;4.20;99.90
31735;DHT22;18313;48.518;9.124;2022-11-11T02:56:43;4.20;99.90
31735;DHT22;18313;48.518;9.124;2022-11-11T02:59:47;4.10;99.90
31735;DHT22;18313;48.518;9.124;2022-11-11T03:02:32;4.20;99.90
31735;DHT22;18313;48.518;9.124;2022-11-11T03:05:18;4.20;99.90
31735;DHT22;18313;48.518;9.124;2022-11-11T03:08:04;4.10;99.90
31735;DHT22;18313;48.518;9.124;2022-11-11T03:10:50;4.10;99.90
31735;DHT22;18313;48.518;9.124;2022-11-11T03:13:36;4.00;99.90
31735;DHT22;18313;48.518;9.124;2022-11-11T03:16:22;4.00;99.90
31735;DHT22;18313;48.518;9.124;2022-11-11T03:19:27;4.00;99.90
31735;DHT22;18313;48.518;9.124;2022-11-11T03:22:13;4.10;99.90
31735;DHT22;18313;48.518;9.124;2022-11-11T03:25:18;4.10;99.90
31735;DHT22;18313;48.518;9.124;2022-11-11T03:28:22;3.90;99.90
31735;DHT22;18313;48.518;9.124;2022-11-11T03:31:09;3.90;99.90
31735;DHT22;18313;48.518;9.124;2022-11-11T03:33:55;4.00;99.90
31735;DHT22;18313;48.518;9.124;2022-11-11T03:36:40;4.00;99.90
31735;DHT22;18313;48.518;9.124;2022-11-11T03:39:44;4.00;99.90
31735;DHT22;18313;48.518;9.124;2022-11-11T03:42:30;4.00;99.90
31735;DHT22;18313;48.518;9.124;2022-11-11T03:45:15;4.00;99.90
31735;DHT22;18313;48.518;9.124;2022-11-11T03:48:01;3.90;99.90
31735;DHT22;18313;48.518;9.124;2022-11-11T03:50:47;3.90;99.90
31735;DHT22;18313;48.518;9.124;2022-11-11T03:53:32;3.90;99.90
31735;DHT22;18313;48.518;9.124;2022-11-11T03:56:18;3.80;99.90
31735;DHT22;18313;48.518;9.124;2022-11-11T03:59:04;3.80;99.90
31735;DHT22;18313;48.518;9.124;2022-11-11T04:01:50;3.80;99.90
31735;DHT22;18313;48.518;9.124;2022-11-11T04:04:54;3.70;99.90
31735;DHT22;18313;48.518;9.124;2022-11-11T04:08:10;3.70;99.90
31735;DHT22;18313;48.518;9.124;2022-11-11T04:11:23;3.70;99.90
31735;DHT22;18313;48.518;9.124;2022-11-11T04:14:11;3.70;99.90
31735;DHT22;18313;48.518;9.124;2022-11-11T04:17:15;3.70;99.90
31735;DHT22;18313;48.518;9.124;2022-11-11T04:20:01;3.70;99.90
31735;DHT22;18313;48.518;9.124;2022-11-11T04:23:06;3.60;99.90
31735;DHT22;18313;48.518;9.124;2022-11-11T04:25:51;3.70;99.90
31735;DHT22;18313;48.518;9.124;2022-11-11T04:28:38;3.60;99.90
31735;DHT22;18313;48.518;9.124;2022-11-11T04:31:42;3.60;99.90
31735;DHT22;18313;48.518;9.124;2022-11-11T04:34:49;3.70;99.90
31735;DHT22;18313;48.518;9.124;2022-11-11T04:37:43;3.70;99.90
31735;DHT22;18313;48.518;9.124;2022-11-11T04:40:29;3.60;99.90
31735;DHT22;18313;48.518;9.124;2022-11-11T04:43:33;3.60;99.90
31735;DHT22;18313;48.518;9.124;2022-11-11T04:46:41;3.60;99.90
31735;DHT22;18313;48.518;9.124;2022-11-11T04:49:27;3.60;99.90
31735;DHT22;18313;48.518;9.124;2022-11-11T04:52:13;3.50;99.90
31735;DHT22;18313;48.518;9.124;2022-11-11T04:55:11;3.40;99.90
31735;DHT22;18313;48.518;9.124;2022-11-11T04:58:16;3.30;99.90
31735;DHT22;18313;48.518;9.124;2022-11-11T05:01:02;3.20;99.90
31735;DHT22;18313;48.518;9.124;2022-11-11T05:03:47;3.10;99.90
31735;DHT22;18313;48.518;9.124;2022-11-11T05:06:33;3.10;99.90
31735;DHT22;18313;48.518;9.124;2022-11-11T05:09:43;2.90;99.90
31735;DHT22;18313;48.518;9.124;2022-11-11T05:12:29;2.80;99.90
31735;DHT22;18313;48.518;9.124;2022-11-11T05:15:14;2.80;99.90
31735;DHT22;18313;48.518;9.124;2022-11-11T05:18:18;2.80;99.90
31735;DHT22;18313;48.518;9.124;2022-11-11T05:21:26;2.90;99.90
31735;DHT22;18313;48.518;9.124;2022-11-11T05:24:12;3.00;99.90
31735;DHT22;18313;48.518;9.124;2022-11-11T05:27:16;3.00;99.90
31735;DHT22;18313;48.518;9.124;2022-11-11T05:30:04;3.00;99.90
31735;DHT22;18313;48.518;9.124;2022-11-11T05:32:50;3.10;99.90
31735;DHT22;18313;48.518;9.124;2022-11-11T05:35:36;3.10;99.90
31735;DHT22;18313;48.518;9.124;2022-11-11T05:38:21;3.10;99.90
31735;DHT22;18313;48.518;9.124;2022-11-11T05:41:07;3.10;99.90
31735;DHT22;18313;48.518;9.124;2022-11-11T05:43:53;3.20;99.90
31735;DHT22;18313;48.518;9.124;2022-11-11T05:46:39;3.20;99.90
31735;DHT22;18313;48.518;9.124;2022-11-11T05:49:24;3.20;99.90
31735;DHT22;18313;48.518;9.124;2022-11-11T05:52:12;3.20;99.90
31735;DHT22;18313;48.518;9.124;2022-11-11T05:54:58;3.20;99.90
31735;DHT22;18313;48.518;9.124;2022-11-11T05:57:43;3.20;99.90
31735;DHT22;18313;48.518;9.124;2022-11-11T06:00:29;3.30;99.90
31735;DHT22;18313;48.518;9.124;2022-11-11T06:03:14;3.40;99.90
31735;DHT22;18313;48.518;9.124;2022-11-11T06:06:00;3.30;99.90
31735;DHT22;18313;48.518;9.124;2022-11-11T06:08:45;3.30;99.90
31735;DHT22;18313;48.518;9.124;2022-11-11T06:11:31;3.30;99.90
31735;DHT22;18313;48.518;9.124;2022-11-11T06:14:17;3.30;99.90
31735;DHT22;18313;48.518;9.124;2022-11-11T06:17:03;3.40;99.90
31735;DHT22;18313;48.518;9.124;2022-11-11T06:19:49;3.30;99.90
31735;DHT22;18313;48.518;9.124;2022-11-11T06:22:34;3.20;99.90
31735;DHT22;18313;48.518;9.124;2022-11-11T06:25:50;3.20;99.90
31735;DHT22;18313;48.518;9.124;2022-11-11T06:28:55;3.10;99.90
31735;DHT22;18313;48.518;9.124;2022-11-11T06:31:42;3.00;99.90
31735;DHT22;18313;48.518;9.124;2022-11-11T06:34:28;3.00;99.90
31735;DHT22;18313;48.518;9.124;2022-11-11T06:37:14;3.00;99.90
31735;DHT22;18313;48.518;9.124;2022-11-11T06:40:00;3.00;99.90
31735;DHT22;18313;48.518;9.124;2022-11-11T06:42:45;3.00;99.90
31735;DHT22;18313;48.518;9.124;2022-11-11T06:45:31;3.00;99.90
31735;DHT22;18313;48.518;9.124;2022-11-11T06:48:18;3.00;99.90
31735;DHT22;18313;48.518;9.124;2022-11-11T06:51:05;3.00;99.90
31735;DHT22;18313;48.518;9.124;2022-11-11T06:53:51;3.00;99.90
31735;DHT22;18313;48.518;9.124;2022-11-11T06:56:37;3.10;99.90
31735;DHT22;18313;48.518;9.124;2022-11-11T06:59:23;3.10;99.90
31735;DHT22;18313;48.518;9.124;2022-11-11T07:02:13;3.20;99.90
31735;DHT22;18313;48.518;9.124;2022-11-11T07:04:59;3.30;99.90
31735;DHT22;18313;48.518;9.124;2022-11-11T07:07:45;3.30;99.90
31735;DHT22;18313;48.518;9.124;2022-11-11T07:10:31;3.30;99.90
31735;DHT22;18313;48.518;9.124;2022-11-11T07:13:17;3.40;99.90
31735;DHT22;18313;48.518;9.124;2022-11-11T07:16:03;3.40;99.90
31735;DHT22;18313;48.518;9.124;2022-11-11T07:18:49;3.40;99.90
31735;DHT22;18313;48.518;9.124;2022-11-11T07:21:35;3.40;99.90
31735;DHT22;18313;48.518;9.124;2022-11-11T07:24:20;3.50;99.90
31735;DHT22;18313;48.518;9.124;2022-11-11T07:27:06;3.60;99.90
31735;DHT22;18313;48.518;9.124;2022-11-11T07:29:52;3.70;99.90
31735;DHT22;18313;48.518;9.124;2022-11-11T07:32:44;3.70;99.90
31735;DHT22;18313;48.518;9.124;2022-11-11T07:35:31;3.80;99.90
31735;DHT22;18313;48.518;9.124;2022-11-11T07:38:16;3.90;99.90
31735;DHT22;18313;48.518;9.124;2022-11-11T07:41:03;4.00;99.90
31735;DHT22;18313;48.518;9.124;2022-11-11T07:43:49;4.00;99.90
31735;DHT22;18313;48.518;9.124;2022-11-11T07:46:35;4.10;99.90
31735;DHT22;18313;48.518;9.124;2022-11-11T07:49:21;4.20;99.90
31735;DHT22;18313;48.518;9.124;2022-11-11T07:52:07;4.30;99.90
31735;DHT22;18313;48.518;9.124;2022-11-11T07:54:52;4.30;99.90
31735;DHT22;18313;48.518;9.124;2022-11-11T07:57:39;4.20;99.90
31735;DHT22;18313;48.518;9.124;2022-11-11T08:00:24;4.30;99.90
31735;DHT22;18313;48.518;9.124;2022-11-11T08:03:10;4.50;99.90
31735;DHT22;18313;48.518;9.124;2022-11-11T08:05:56;4.60;99.90
31735;DHT22;18313;48.518;9.124;2022-11-11T08:08:41;4.70;99.90
31735;DHT22;18313;48.518;9.124;2022-11-11T08:11:27;4.80;99.90
31735;DHT22;18313;48.518;9.124;2022-11-11T08:14:31;5.00;99.90
31735;DHT22;18313;48.518;9.124;2022-11-11T08:17:17;5.20;99.90
31735;DHT22;18313;48.518;9.124;2022-11-11T08:20:02;5.40;99.90
31735;DHT22;18313;48.518;9.124;2022-11-11T08:22:48;5.50;99.90
31735;DHT22;18313;48.518;9.124;2022-11-11T08:26:00;5.70;99.90
31735;DHT22;18313;48.518;9.124;2022-11-11T08:28:47;5.80;99.90
31735;DHT22;18313;48.518;9.124;2022-11-11T08:31:32;6.00;99.90
31735;DHT22;18313;48.518;9.124;2022-11-11T08:34:19;6.00;99.90
31735;DHT22;18313;48.518;9.124;2022-11-11T08:37:05;6.20;99.90
31735;DHT22;18313;48.518;9.124;2022-11-11T08:39:51;6.40;99.90
31735;DHT22;18313;48.518;9.124;2022-11-11T08:42:37;6.60;99.90
31735;DHT22;18313;48.518;9.124;2022-11-11T08:45:24;6.80;99.90
31735;DHT22;18313;48.518;9.124;2022-11-11T08:48:10;7.00;99.90
31735;DHT22;18313;48.518;9.124;2022-11-11T08:50:55;7.00;99.90
31735;DHT22;18313;48.518;9.124;2022-11-11T08:53:41;7.00;99.90
31735;DHT22;18313;48.518;9.124;2022-11-11T08:56:27;7.10;99.90
31735;DHT22;18313;48.518;9.124;2022-11-11T08:59:13;7.20;99.90
31735;DHT22;18313;48.518;9.124;2022-11-11T09:01:58;7.30;99.90
31735;DHT22;18313;48.518;9.124;2022-11-11T09:04:44;7.40;99.90
31735;DHT22;18313;48.518;9.124;2022-11-11T09:07:33;7.50;99.90
31735;DHT22;18313;48.518;9.124;2022-11-11T09:10:19;7.70;99.90
31735;DHT22;18313;48.518;9.124;2022-11-11T09:13:05;7.70;99.90
31735;DHT22;18313;48.518;9.124;2022-11-11T09:15:53;7.90;99.90
31735;DHT22;18313;48.518;9.124;2022-11-11T09:18:39;8.00;99.90
31735;DHT22;18313;48.518;9.124;2022-11-11T09:21:24;8.00;99.90
31735;DHT22;18313;48.518;9.124;2022-11-11T09:24:10;8.00;99.90
31735;DHT22;18313;48.518;9.124;2022-11-11T09:26:55;7.90;99.90
31735;DHT22;18313;48.518;9.124;2022-11-11T09:29:41;8.00;99.90
31735;DHT22;18313;48.518;9.124;2022-11-11T09:32:27;8.00;99.90
31735;DHT22;18313;48.518;9.124;2022-11-11T09:35:12;8.10;99.90
31735;DHT22;18313;48.518;9.124;2022-11-11T09:37:59;8.30;99.90
31735;DHT22;18313;48.518;9.124;2022-11-11T09:40:56;8.30;99.90
31735;DHT22;18313;48.518;9.124;2022-11-11T09:43:56;8.50;99.90
31735;DHT22;18313;48.518;9.124;2022-11-11T09:46:45;8.70;99.90
31735;DHT22;18313;48.518;9.124;2022-11-11T09:52:55;9.10;99.90
31735;DHT22;18313;48.518;9.124;2022-11-11T09:55:45;9.30;99.90
31735;DHT22;18313;48.518;9.124;2022-11-11T10:01:36;10.00;99.90
31735;DHT22;18313;48.518;9.124;2022-11-11T10:05:16;10.20;99.90
31735;DHT22;18313;48.518;9.124;2022-11-11T10:10:52;10.70;99.90
31735;DHT22;18313;48.518;9.124;2022-11-11T10:13:38;10.90;99.90
31735;DHT22;18313;48.518;9.124;2022-11-11T10:16:39;11.10;99.90
31735;DHT22;18313;48.518;9.124;2022-11-11T10:22:21;11.20;99.90
31735;DHT22;18313;48.518;9.124;2022-11-11T10:25:23;11.40;99.90
31735;DHT22;18313;48.518;9.124;2022-11-11T10:28:15;11.50;99.90
31735;DHT22;18313;48.518;9.124;2022-11-11T10:31:05;11.50;99.90
31735;DHT22;18313;48.518;9.124;2022-11-11T10:33:59;11.50;99.90
31735;DHT22;18313;48.518;9.124;2022-11-11T10:36:53;11.60;99.90
31735;DHT22;18313;48.518;9.124;2022-11-11T10:40:17;11.70;99.90
31735;DHT22;18313;48.518;9.124;2022-11-11T10:43:22;11.80;99.90
31735;DHT22;18313;48.518;9.124;2022-11-11T10:46:15;11.80;99.90
31735;DHT22;18313;48.518;9.124;2022-11-11T10:49:18;11.80;99.90
31735;DHT22;18313;48.518;9.124;2022-11-11T10:52:15;12.00;99.90
31735;DHT22;18313;48.518;9.124;2022-11-11T10:55:08;12.00;99.90
31735;DHT22;18313;48.518;9.124;2022-11-11T10:58:06;12.10;99.90
31735;DHT22;18313;48.518;9.124;2022-11-11T11:00:56;12.10;99.90
31735;DHT22;18313;48.518;9.124;2022-11-11T11:03:46;12.10;99.90
31735;DHT22;18313;48.518;9.124;2022-11-11T11:06:38;12.10;99.90
31735;DHT22;18313;48.518;9.124;2022-11-11T11:09:28;12.20;99.90
31735;DHT22;18313;48.518;9.124;2022-11-11T11:12:27;12.40;99.90
31735;DHT22;18313;48.518;9.124;2022-11-11T11:15:21;12.50;99.90
31735;DHT22;18313;48.518;9.124;2022-11-11T11:18:11;12.60;99.90
31735;DHT22;18313;48.518;9.124;2022-11-11T11:21:07;12.70;99.90
31735;DHT22;18313;48.518;9.124;2022-11-11T11:23:52;12.80;99.90
31735;DHT22;18313;48.518;9.124;2022-11-11T11:26:43;12.90;99.90
31735;DHT22;18313;48.518;9.124;2022-11-11T11:29:33;13.00;99.90
31735;DHT22;18313;48.518;9.124;2022-11-11T11:32:30;13.10;99.90
31735;DHT22;18313;48.518;9.124;2022-11-11T11:38:39;13.30;99.90
31735;DHT22;18313;48.518;9.124;2022-11-11T11:41:43;13.40;99.90
31735;DHT22;18313;48.518;9.124;2022-11-11T11:44:34;13.50;99.90
31735;DHT22;18313;48.518;9.124;2022-11-11T11:47:42;13.50;99.90
31735;DHT22;18313;48.518;9.124;2022-11-11T11:50:52;13.50;99.90
31735;DHT22;18313;48.518;9.124;2022-11-11T11:56:44;13.70;99.90
31735;DHT22;18313;48.518;9.124;2022-11-11T11:59:48;13.60;99.90
31735;DHT22;18313;48.518;9.124;2022-11-11T12:06:53;13.60;99.90
31735;DHT22;18313;48.518;9.124;2022-11-11T12:09:58;13.60;99.90
31735;DHT22;18313;48.518;9.124;2022-11-11T12:25:29;13.70;99.90
31735;DHT22;18313;48.518;9.124;2022-11-11T12:34:22;14.20;99.90
31735;DHT22;18313;48.518;9.124;2022-11-11T12:37:49;14.40;99.90
31735;DHT22;18313;48.518;9.124;2022-11-11T12:40:52;14.40;99.90
31735;DHT22;18313;48.518;9.124;2022-11-11T12:44:02;14.50;99.90
31735;DHT22;18313;48.518;9.124;2022-11-11T12:56:06;14.60;99.90
31735;DHT22;18313;48.518;9.124;2022-11-11T13:12:17;14.60;99.90
31735;DHT22;18313;48.518;9.124;2022-11-11T13:15:15;14.50;99.90
31735;DHT22;18313;48.518;9.124;2022-11-11T13:18:07;14.50;99.90
31735;DHT22;18313;48.518;9.124;2022-11-11T13:21:02;14.40;99.90
31735;DHT22;18313;48.518;9.124;2022-11-11T13:23:48;14.30;99.90
31735;DHT22;18313;48.518;9.124;2022-11-11T13:26:39;14.30;99.90
31735;DHT22;18313;48.518;9.124;2022-11-11T13:32:31;14.30;99.90
31735;DHT22;18313;48.518;9.124;2022-11-11T13:35:37;14.30;99.90
31735;DHT22;18313;48.518;9.124;2022-11-11T13:38:36;14.20;99.90
31735;DHT22;18313;48.518;9.124;2022-11-11T13:41:36;14.20;99.90
31735;DHT22;18313;48.518;9.124;2022-11-11T13:44:29;14.30;99.90
31735;DHT22;18313;48.518;9.124;2022-11-11T13:47:22;14.30;99.90
31735;DHT22;18313;48.518;9.124;2022-11-11T13:50:20;14.40;99.90
31735;DHT22;18313;48.518;9.124;2022-11-11T13:53:31;14.40;99.90
31735;DHT22;18313;48.518;9.124;2022-11-11T13:56:23;14.40;99.90
31735;DHT22;18313;48.518;9.124;2022-11-11T13:59:38;14.50;99.90
31735;DHT22;18313;48.518;9.124;2022-11-11T14:07:58;14.50;99.90
31735;DHT22;18313;48.518;9.124;2022-11-11T14:10:49;14.30;99.90
31735;DHT22;18313;48.518;9.124;2022-11-11T14:13:38;14.30;99.90
31735;DHT22;18313;48.518;9.124;2022-11-11T14:22:27;14.30;99.90
31735;DHT22;18313;48.518;9.124;2022-11-11T14:25:25;14.40;99.90
31735;DHT22;18313;48.518;9.124;2022-11-11T14:28:28;14.50;99.90
31735;DHT22;18313;48.518;9.124;2022-11-11T14:37:42;14.50;99.90
31735;DHT22;18313;48.518;9.124;2022-11-11T14:40:37;14.30;99.90
31735;DHT22;18313;48.518;9.124;2022-11-11T14:43:32;14.30;99.90
31735;DHT22;18313;48.518;9.124;2022-11-11T14:46:18;14.30;99.90
31735;DHT22;18313;48.518;9.124;2022-11-11T14:49:06;14.30;99.90
31735;DHT22;18313;48.518;9.124;2022-11-11T14:51:54;14.30;99.90
31735;DHT22;18313;48.518;9.124;2022-11-11T14:58:11;14.20;99.90
31735;DHT22;18313;48.518;9.124;2022-11-11T15:03:53;14.20;99.90
31735;DHT22;18313;48.518;9.124;2022-11-11T15:06:44;14.20;99.90
31735;DHT22;18313;48.518;9.124;2022-11-11T15:16:42;13.90;99.90
31735;DHT22;18313;48.518;9.124;2022-11-11T15:19:48;13.70;99.90
31735;DHT22;18313;48.518;9.124;2022-11-11T15:25:51;13.40;99.90
31735;DHT22;18313;48.518;9.124;2022-11-11T15:29:01;13.20;99.90
31735;DHT22;18313;48.518;9.124;2022-11-11T15:38:17;12.70;99.90
31735;DHT22;18313;48.518;9.124;2022-11-11T15:41:04;12.60;99.90
31735;DHT22;18313;48.518;9.124;2022-11-11T15:43:51;12.60;99.90
31735;DHT22;18313;48.518;9.124;2022-11-11T15:46:40;12.50;99.90
31735;DHT22;18313;48.518;9.124;2022-11-11T15:49:43;12.40;99.90
31735;DHT22;18313;48.518;9.124;2022-11-11T15:52:33;12.10;99.90
31735;DHT22;18313;48.518;9.124;2022-11-11T15:58:23;11.80;99.90
31735;DHT22;18313;48.518;9.124;2022-11-11T16:01:10;11.70;99.90
31735;DHT22;18313;48.518;9.124;2022-11-11T16:03:57;11.60;99.90
31735;DHT22;18313;48.518;9.124;2022-11-11T16:06:43;11.40;99.90
31735;DHT22;18313;48.518;9.124;2022-11-11T16:09:29;11.30;99.90
31735;DHT22;18313;48.518;9.124;2022-11-11T16:12:23;11.20;99.90
31735;DHT22;18313;48.518;9.124;2022-11-11T16:15:18;11.10;99.90
31735;DHT22;18313;48.518;9.124;2022-11-11T16:18:11;11.00;99.90
31735;DHT22;18313;48.518;9.124;2022-11-11T16:23:50;10.80;99.90
31735;DHT22;18313;48.518;9.124;2022-11-11T16:26:36;10.70;99.90
31735;DHT22;18313;48.518;9.124;2022-11-11T16:29:28;10.60;99.90
31735;DHT22;18313;48.518;9.124;2022-11-11T16:38:32;10.30;99.90
31735;DHT22;18313;48.518;9.124;2022-11-11T16:50:27;9.90;99.90
31735;DHT22;18313;48.518;9.124;2022-11-11T16:53:26;9.80;99.90
31735;DHT22;18313;48.518;9.124;2022-11-11T16:56:27;9.70;99.90
31735;DHT22;18313;48.518;9.124;2022-11-11T17:02:17;9.60;99.90
31735;DHT22;18313;48.518;9.124;2022-11-11T17:05:03;9.60;99.90
31735;DHT22;18313;48.518;9.124;2022-11-11T17:07:49;9.50;99.90
31735;DHT22;18313;48.518;9.124;2022-11-11T17:10:38;9.70;99.90
31735;DHT22;18313;48.518;9.124;2022-11-11T17:13:25;9.60;99.90
31735;DHT22;18313;48.518;9.124;2022-11-11T17:16:12;9.40;99.90
31735;DHT22;18313;48.518;9.124;2022-11-11T17:19:01;9.30;99.90
31735;DHT22;18313;48.518;9.124;2022-11-11T17:21:48;9.20;99.90
31735;DHT22;18313;48.518;9.124;2022-11-11T17:24:33;9.10;99.90
31735;DHT22;18313;48.518;9.124;2022-11-11T17:27:19;9.00;99.90
31735;DHT22;18313;48.518;9.124;2022-11-11T17:30:05;8.90;99.90
31735;DHT22;18313;48.518;9.124;2022-11-11T17:32:51;8.80;99.90
31735;DHT22;18313;48.518;9.124;2022-11-11T17:35:37;8.80;99.90
31735;DHT22;18313;48.518;9.124;2022-11-11T17:38:22;8.60;99.90
31735;DHT22;18313;48.518;9.124;2022-11-11T17:41:13;8.60;99.90
31735;DHT22;18313;48.518;9.124;2022-11-11T17:43:59;8.60;99.90
31735;DHT22;18313;48.518;9.124;2022-11-11T17:46:45;8.40;99.90
31735;DHT22;18313;48.518;9.124;2022-11-11T17:49:31;8.30;99.90
31735;DHT22;18313;48.518;9.124;2022-11-11T17:52:36;8.20;99.90
31735;DHT22;18313;48.518;9.124;2022-11-11T17:55:22;8.10;99.90
31735;DHT22;18313;48.518;9.124;2022-11-11T17:58:10;8.00;99.90
31735;DHT22;18313;48.518;9.124;2022-11-11T18:01:09;8.10;99.90
31735;DHT22;18313;48.518;9.124;2022-11-11T18:03:56;8.20;99.90
31735;DHT22;18313;48.518;9.124;2022-11-11T18:06:42;8.20;99.90
31735;DHT22;18313;48.518;9.124;2022-11-11T18:09:28;8.10;99.90
31735;DHT22;18313;48.518;9.124;2022-11-11T18:12:13;8.10;99.90
31735;DHT22;18313;48.518;9.124;2022-11-11T18:15:00;8.00;99.90
31735;DHT22;18313;48.518;9.124;2022-11-11T18:17:46;8.00;99.90
31735;DHT22;18313;48.518;9.124;2022-11-11T18:20:32;7.90;99.90
31735;DHT22;18313;48.518;9.124;2022-11-11T18:23:17;7.80;99.90
31735;DHT22;18313;48.518;9.124;2022-11-11T18:26:04;7.70;99.90
31735;DHT22;18313;48.518;9.124;2022-11-11T18:28:50;7.60;99.90
31735;DHT22;18313;48.518;9.124;2022-11-11T18:31:36;7.50;99.90
31735;DHT22;18313;48.518;9.124;2022-11-11T18:34:21;7.40;99.90
31735;DHT22;18313;48.518;9.124;2022-11-11T18:37:07;7.40;99.90
31735;DHT22;18313;48.518;9.124;2022-11-11T18:39:53;7.40;99.90
31735;DHT22;18313;48.518;9.124;2022-11-11T18:42:38;7.40;99.90
31735;DHT22;18313;48.518;9.124;2022-11-11T18:45:24;7.30;99.90
31735;DHT22;18313;48.518;9.124;2022-11-11T18:48:10;7.40;99.90
31735;DHT22;18313;48.518;9.124;2022-11-11T18:50:56;7.40;99.90
31735;DHT22;18313;48.518;9.124;2022-11-11T18:53:42;7.40;99.90
31735;DHT22;18313;48.518;9.124;2022-11-11T18:56:28;7.40;99.90
31735;DHT22;18313;48.518;9.124;2022-11-11T18:59:13;7.40;99.90
31735;DHT22;18313;48.518;9.124;2022-11-11T19:01:59;7.40;99.90
31735;DHT22;18313;48.518;9.124;2022-11-11T19:04:44;7.30;99.90
31735;DHT22;18313;48.518;9.124;2022-11-11T19:07:30;7.30;99.90
31735;DHT22;18313;48.518;9.124;2022-11-11T19:10:16;7.30;99.90
31735;DHT22;18313;48.518;9.124;2022-11-11T19:13:01;7.30;99.90
31735;DHT22;18313;48.518;9.124;2022-11-11T19:15:48;7.30;99.90
31735;DHT22;18313;48.518;9.124;2022-11-11T19:18:34;7.30;99.90
31735;DHT22;18313;48.518;9.124;2022-11-11T19:21:22;7.20;99.90
31735;DHT22;18313;48.518;9.124;2022-11-11T19:24:08;7.10;99.90
31735;DHT22;18313;48.518;9.124;2022-11-11T19:26:53;7.10;99.90
31735;DHT22;18313;48.518;9.124;2022-11-11T19:29:39;7.20;99.90
31735;DHT22;18313;48.518;9.124;2022-11-11T19:32:25;7.20;99.90
31735;DHT22;18313;48.518;9.124;2022-11-11T19:35:10;7.20;99.90
31735;DHT22;18313;48.518;9.124;2022-11-11T19:37:56;7.10;99.90
31735;DHT22;18313;48.518;9.124;2022-11-11T19:40:41;7.10;99.90
31735;DHT22;18313;48.518;9.124;2022-11-11T19:43:27;7.00;99.90
31735;DHT22;18313;48.518;9.124;2022-11-11T19:46:15;7.00;99.90
31735;DHT22;18313;48.518;9.124;2022-11-11T19:49:00;6.90;99.90
31735;DHT22;18313;48.518;9.124;2022-11-11T19:51:46;6.90;99.90
31735;DHT22;18313;48.518;9.124;2022-11-11T19:54:31;6.90;99.90
31735;DHT22;18313;48.518;9.124;2022-11-11T19:57:17;6.80;99.90
31735;DHT22;18313;48.518;9.124;2022-11-11T20:00:03;6.80;99.90
31735;DHT22;18313;48.518;9.124;2022-11-11T20:02:50;6.80;99.90
31735;DHT22;18313;48.518;9.124;2022-11-11T20:05:36;6.80;99.90
31735;DHT22;18313;48.518;9.124;2022-11-11T20:08:22;6.80;99.90
31735;DHT22;18313;48.518;9.124;2022-11-11T20:11:08;6.70;99.90
31735;DHT22;18313;48.518;9.124;2022-11-11T20:13:54;6.60;99.90
31735;DHT22;18313;48.518;9.124;2022-11-11T20:16:40;6.60;99.90
31735;DHT22;18313;48.518;9.124;2022-11-11T20:19:26;6.50;99.90
31735;DHT22;18313;48.518;9.124;2022-11-11T20:22:11;6.40;99.90
31735;DHT22;18313;48.518;9.124;2022-11-11T20:24:57;6.50;99.90
31735;DHT22;18313;48.518;9.124;2022-11-11T20:27:42;6.40;99.90